sensor_id;sensor_type;location;lat;lon;timestamp;P1;durP1;ratioP1;P2;durP2;ratioP2
45620;SDS011;31345;51.522;10.702;2023-11-18T00:00:14;17.00;;;9.23;;
45620;SDS011;31345;51.522;10.702;2023-11-18T00:02:43;15.20;;;8.73;;
45620;SDS011;31345;51.522;10.702;2023-11-18T00:05:12;13.23;;;8.07;;
45620;SDS011;31345;51.522;10.702;2023-11-18T00:07:40;14.43;;;8.57;;
45620;SDS011;31345;51.522;10.702;2023-11-18T00:10:12;13.33;;;8.03;;
45620;SDS011;31345;51.522;10.702;2023-11-18T00:12:40;13.90;;;8.33;;
45620;SDS011;31345;51.522;10.702;2023-11-18T00:15:08;13.13;;;8.70;;
45620;SDS011;31345;51.522;10.702;2023-11-18T00:17:37;15.77;;;8.77;;
45620;SDS011;31345;51.522;10.702;2023-11-18T00:20:05;14.63;;;8.77;;
45620;SDS011;31345;51.522;10.702;2023-11-18T00:22:39;14.13;;;8.30;;
45620;SDS011;31345;51.522;10.702;2023-11-18T00:25:07;13.83;;;8.50;;
45620;SDS011;31345;51.522;10.702;2023-11-18T00:27:35;14.23;;;8.47;;
45620;SDS011;31345;51.522;10.702;2023-11-18T00:30:04;16.87;;;8.80;;
45620;SDS011;31345;51.522;10.702;2023-11-18T00:32:34;15.95;;;9.20;;
45620;SDS011;31345;51.522;10.702;2023-11-18T00:35:02;13.00;;;8.80;;
45620;SDS011;31345;51.522;10.702;2023-11-18T00:37:31;13.40;;;8.27;;
45620;SDS011;31345;51.522;10.702;2023-11-18T00:40:06;15.87;;;8.60;;
45620;SDS011;31345;51.522;10.702;2023-11-18T00:42:34;15.20;;;9.07;;
45620;SDS011;31345;51.522;10.702;2023-11-18T00:45:02;14.23;;;8.33;;
45620;SDS011;31345;51.522;10.702;2023-11-18T00:47:31;16.03;;;9.70;;
45620;SDS011;31345;51.522;10.702;2023-11-18T00:49:58;17.37;;;8.97;;
45620;SDS011;31345;51.522;10.702;2023-11-18T00:52:27;17.53;;;8.87;;
45620;SDS011;31345;51.522;10.702;2023-11-18T00:54:55;14.40;;;8.80;;
45620;SDS011;31345;51.522;10.702;2023-11-18T00:57:24;18.47;;;9.03;;
45620;SDS011;31345;51.522;10.702;2023-11-18T00:59:52;17.10;;;9.87;;
45620;SDS011;31345;51.522;10.702;2023-11-18T01:02:24;17.27;;;9.40;;
45620;SDS011;31345;51.522;10.702;2023-11-18T01:04:53;19.73;;;9.50;;
45620;SDS011;31345;51.522;10.702;2023-11-18T01:07:21;15.77;;;8.60;;
45620;SDS011;31345;51.522;10.702;2023-11-18T01:09:54;18.20;;;8.80;;
45620;SDS011;31345;51.522;10.702;2023-11-18T01:12:22;15.07;;;9.07;;
45620;SDS011;31345;51.522;10.702;2023-11-18T01:14:51;13.70;;;8.83;;
45620;SDS011;31345;51.522;10.702;2023-11-18T01:17:18;14.40;;;8.30;;
45620;SDS011;31345;51.522;10.702;2023-11-18T01:19:48;17.33;;;9.03;;
45620;SDS011;31345;51.522;10.702;2023-11-18T01:22:15;14.60;;;9.83;;
45620;SDS011;31345;51.522;10.702;2023-11-18T01:24:49;17.57;;;10.33;;
45620;SDS011;31345;51.522;10.702;2023-11-18T01:27:23;13.07;;;8.33;;
45620;SDS011;31345;51.522;10.702;2023-11-18T01:29:57;16.00;;;10.03;;
45620;SDS011;31345;51.522;10.702;2023-11-18T01:32:26;17.10;;;10.33;;
45620;SDS011;31345;51.522;10.702;2023-11-18T01:34:56;17.67;;;10.00;;
45620;SDS011;31345;51.522;10.702;2023-11-18T01:37:30;18.70;;;10.20;;
45620;SDS011;31345;51.522;10.702;2023-11-18T01:39:58;17.43;;;10.03;;
45620;SDS011;31345;51.522;10.702;2023-11-18T01:42:25;18.07;;;10.00;;
45620;SDS011;31345;51.522;10.702;2023-11-18T01:44:53;16.43;;;9.70;;
45620;SDS011;31345;51.522;10.702;2023-11-18T01:47:27;18.50;;;11.47;;
45620;SDS011;31345;51.522;10.702;2023-11-18T01:49:55;18.23;;;10.23;;
45620;SDS011;31345;51.522;10.702;2023-11-18T01:52:29;16.97;;;9.73;;
45620;SDS011;31345;51.522;10.702;2023-11-18T01:55:02;18.70;;;9.73;;
45620;SDS011;31345;51.522;10.702;2023-11-18T01:57:32;19.87;;;10.93;;
45620;SDS011;31345;51.522;10.702;2023-11-18T02:00:00;21.33;;;11.43;;
45620;SDS011;31345;51.522;10.702;2023-11-18T02:02:40;19.40;;;10.83;;
45620;SDS011;31345;51.522;10.702;2023-11-18T02:05:09;15.77;;;8.05;;
45620;SDS011;31345;51.522;10.702;2023-11-18T02:07:43;20.23;;;10.67;;
45620;SDS011;31345;51.522;10.702;2023-11-18T02:10:12;17.77;;;10.67;;
45620;SDS011;31345;51.522;10.702;2023-11-18T02:12:43;18.03;;;10.53;;
45620;SDS011;31345;51.522;10.702;2023-11-18T02:15:19;23.47;;;11.17;;
45620;SDS011;31345;51.522;10.702;2023-11-18T02:17:51;20.60;;;10.75;;
45620;SDS011;31345;51.522;10.702;2023-11-18T02:20:20;20.03;;;11.07;;
45620;SDS011;31345;51.522;10.702;2023-11-18T02:22:50;18.93;;;10.73;;
45620;SDS011;31345;51.522;10.702;2023-11-18T02:25:19;20.53;;;11.57;;
45620;SDS011;31345;51.522;10.702;2023-11-18T02:27:49;19.27;;;11.07;;
45620;SDS011;31345;51.522;10.702;2023-11-18T02:30:19;21.03;;;12.87;;
45620;SDS011;31345;51.522;10.702;2023-11-18T02:32:50;21.30;;;11.80;;
45620;SDS011;31345;51.522;10.702;2023-11-18T02:35:28;24.40;;;11.73;;
45620;SDS011;31345;51.522;10.702;2023-11-18T02:38:03;18.73;;;11.27;;
45620;SDS011;31345;51.522;10.702;2023-11-18T02:40:34;19.65;;;10.95;;
45620;SDS011;31345;51.522;10.702;2023-11-18T02:43:09;23.00;;;11.50;;
45620;SDS011;31345;51.522;10.702;2023-11-18T02:45:38;22.00;;;13.00;;
45620;SDS011;31345;51.522;10.702;2023-11-18T02:48:12;19.87;;;11.50;;
45620;SDS011;31345;51.522;10.702;2023-11-18T02:50:41;22.43;;;11.67;;
45620;SDS011;31345;51.522;10.702;2023-11-18T02:53:08;18.77;;;11.70;;
45620;SDS011;31345;51.522;10.702;2023-11-18T02:55:41;20.73;;;11.80;;
45620;SDS011;31345;51.522;10.702;2023-11-18T02:58:10;16.73;;;10.60;;
45620;SDS011;31345;51.522;10.702;2023-11-18T03:00:43;22.90;;;10.77;;
45620;SDS011;31345;51.522;10.702;2023-11-18T03:03:11;22.70;;;13.23;;
45620;SDS011;31345;51.522;10.702;2023-11-18T03:05:40;27.67;;;14.50;;
45620;SDS011;31345;51.522;10.702;2023-11-18T03:08:07;22.50;;;13.03;;
45620;SDS011;31345;51.522;10.702;2023-11-18T03:10:35;21.87;;;12.93;;
45620;SDS011;31345;51.522;10.702;2023-11-18T03:13:03;24.30;;;12.83;;
45620;SDS011;31345;51.522;10.702;2023-11-18T03:15:32;20.77;;;11.63;;
45620;SDS011;31345;51.522;10.702;2023-11-18T03:18:00;23.63;;;13.30;;
45620;SDS011;31345;51.522;10.702;2023-11-18T03:20:27;30.80;;;17.27;;
45620;SDS011;31345;51.522;10.702;2023-11-18T03:23:00;29.03;;;16.87;;
45620;SDS011;31345;51.522;10.702;2023-11-18T03:25:33;32.73;;;17.07;;
45620;SDS011;31345;51.522;10.702;2023-11-18T03:28:05;35.53;;;18.97;;
45620;SDS011;31345;51.522;10.702;2023-11-18T03:30:36;33.67;;;18.47;;
45620;SDS011;31345;51.522;10.702;2023-11-18T03:33:08;29.83;;;18.23;;
45620;SDS011;31345;51.522;10.702;2023-11-18T03:35:37;30.40;;;17.70;;
45620;SDS011;31345;51.522;10.702;2023-11-18T03:38:09;34.07;;;17.60;;
45620;SDS011;31345;51.522;10.702;2023-11-18T03:40:37;36.70;;;18.67;;
45620;SDS011;31345;51.522;10.702;2023-11-18T03:43:05;36.87;;;17.30;;
45620;SDS011;31345;51.522;10.702;2023-11-18T03:45:33;31.30;;;18.20;;
45620;SDS011;31345;51.522;10.702;2023-11-18T03:48:02;36.20;;;17.83;;
45620;SDS011;31345;51.522;10.702;2023-11-18T03:50:35;30.97;;;16.83;;
45620;SDS011;31345;51.522;10.702;2023-11-18T03:53:08;31.90;;;17.60;;
45620;SDS011;31345;51.522;10.702;2023-11-18T03:55:36;27.20;;;17.10;;
45620;SDS011;31345;51.522;10.702;2023-11-18T03:58:04;30.77;;;16.90;;
45620;SDS011;31345;51.522;10.702;2023-11-18T04:00:31;35.67;;;17.80;;
45620;SDS011;31345;51.522;10.702;2023-11-18T04:03:05;30.03;;;17.20;;
45620;SDS011;31345;51.522;10.702;2023-11-18T04:05:38;29.57;;;16.67;;
45620;SDS011;31345;51.522;10.702;2023-11-18T04:08:06;28.97;;;15.77;;
45620;SDS011;31345;51.522;10.702;2023-11-18T04:10:34;34.30;;;16.80;;
45620;SDS011;31345;51.522;10.702;2023-11-18T04:13:02;28.90;;;14.97;;
45620;SDS011;31345;51.522;10.702;2023-11-18T04:15:29;27.67;;;16.43;;
45620;SDS011;31345;51.522;10.702;2023-11-18T04:17:57;22.70;;;14.40;;
45620;SDS011;31345;51.522;10.702;2023-11-18T04:20:32;29.07;;;15.07;;
45620;SDS011;31345;51.522;10.702;2023-11-18T04:23:05;23.30;;;14.27;;
45620;SDS011;31345;51.522;10.702;2023-11-18T04:25:33;25.10;;;13.70;;
45620;SDS011;31345;51.522;10.702;2023-11-18T04:28:01;28.17;;;15.20;;
45620;SDS011;31345;51.522;10.702;2023-11-18T04:30:30;27.67;;;14.07;;
45620;SDS011;31345;51.522;10.702;2023-11-18T04:32:57;30.13;;;14.83;;
45620;SDS011;31345;51.522;10.702;2023-11-18T04:35:26;24.73;;;14.80;;
45620;SDS011;31345;51.522;10.702;2023-11-18T04:37:55;27.47;;;14.60;;
45620;SDS011;31345;51.522;10.702;2023-11-18T04:40:23;26.60;;;15.50;;
45620;SDS011;31345;51.522;10.702;2023-11-18T04:42:56;29.53;;;14.60;;
45620;SDS011;31345;51.522;10.702;2023-11-18T04:45:28;30.63;;;15.33;;
45620;SDS011;31345;51.522;10.702;2023-11-18T04:47:56;28.87;;;15.70;;
45620;SDS011;31345;51.522;10.702;2023-11-18T04:50:25;27.33;;;14.50;;
45620;SDS011;31345;51.522;10.702;2023-11-18T04:52:52;28.10;;;15.50;;
45620;SDS011;31345;51.522;10.702;2023-11-18T04:55:21;27.13;;;14.83;;
45620;SDS011;31345;51.522;10.702;2023-11-18T04:57:54;28.60;;;15.37;;
45620;SDS011;31345;51.522;10.702;2023-11-18T05:00:22;31.93;;;14.80;;
45620;SDS011;31345;51.522;10.702;2023-11-18T05:02:56;29.10;;;14.83;;
45620;SDS011;31345;51.522;10.702;2023-11-18T05:05:25;29.47;;;14.03;;
45620;SDS011;31345;51.522;10.702;2023-11-18T05:07:52;27.47;;;15.27;;
45620;SDS011;31345;51.522;10.702;2023-11-18T05:10:26;26.13;;;13.60;;
45620;SDS011;31345;51.522;10.702;2023-11-18T05:12:54;27.67;;;15.37;;
45620;SDS011;31345;51.522;10.702;2023-11-18T05:15:27;27.73;;;15.23;;
45620;SDS011;31345;51.522;10.702;2023-11-18T05:17:56;31.43;;;16.77;;
45620;SDS011;31345;51.522;10.702;2023-11-18T05:20:29;30.57;;;15.60;;
45620;SDS011;31345;51.522;10.702;2023-11-18T05:23:01;28.27;;;15.93;;
45620;SDS011;31345;51.522;10.702;2023-11-18T05:25:31;30.43;;;16.03;;
45620;SDS011;31345;51.522;10.702;2023-11-18T05:28:04;36.10;;;17.37;;
45620;SDS011;31345;51.522;10.702;2023-11-18T05:30:34;37.22;;;18.08;;
45620;SDS011;31345;51.522;10.702;2023-11-18T05:33:02;33.43;;;18.30;;
45620;SDS011;31345;51.522;10.702;2023-11-18T05:35:36;36.37;;;18.93;;
45620;SDS011;31345;51.522;10.702;2023-11-18T05:38:03;35.10;;;18.53;;
45620;SDS011;31345;51.522;10.702;2023-11-18T05:40:38;32.83;;;17.13;;
45620;SDS011;31345;51.522;10.702;2023-11-18T05:43:14;37.23;;;19.23;;
45620;SDS011;31345;51.522;10.702;2023-11-18T05:45:50;37.83;;;19.20;;
45620;SDS011;31345;51.522;10.702;2023-11-18T05:48:42;40.47;;;20.83;;
45620;SDS011;31345;51.522;10.702;2023-11-18T05:51:10;37.37;;;19.67;;
45620;SDS011;31345;51.522;10.702;2023-11-18T05:53:41;37.50;;;19.80;;
45620;SDS011;31345;51.522;10.702;2023-11-18T05:56:17;36.23;;;18.90;;
45620;SDS011;31345;51.522;10.702;2023-11-18T05:58:48;36.37;;;18.43;;
45620;SDS011;31345;51.522;10.702;2023-11-18T06:01:15;36.77;;;18.93;;
45620;SDS011;31345;51.522;10.702;2023-11-18T06:03:44;31.87;;;17.97;;
45620;SDS011;31345;51.522;10.702;2023-11-18T06:06:12;33.50;;;18.50;;
45620;SDS011;31345;51.522;10.702;2023-11-18T06:08:43;35.05;;;17.80;;
45620;SDS011;31345;51.522;10.702;2023-11-18T06:11:11;35.90;;;17.50;;
45620;SDS011;31345;51.522;10.702;2023-11-18T06:13:42;32.67;;;18.20;;
45620;SDS011;31345;51.522;10.702;2023-11-18T06:16:12;26.33;;;15.50;;
45620;SDS011;31345;51.522;10.702;2023-11-18T06:18:41;32.90;;;17.27;;
45620;SDS011;31345;51.522;10.702;2023-11-18T06:21:11;28.63;;;16.27;;
45620;SDS011;31345;51.522;10.702;2023-11-18T06:23:40;28.57;;;16.17;;
45620;SDS011;31345;51.522;10.702;2023-11-18T06:26:13;35.67;;;17.83;;
45620;SDS011;31345;51.522;10.702;2023-11-18T06:28:48;32.10;;;17.33;;
45620;SDS011;31345;51.522;10.702;2023-11-18T06:31:16;32.63;;;17.60;;
45620;SDS011;31345;51.522;10.702;2023-11-18T06:33:45;38.03;;;18.20;;
45620;SDS011;31345;51.522;10.702;2023-11-18T06:36:18;35.40;;;17.43;;
45620;SDS011;31345;51.522;10.702;2023-11-18T06:38:53;35.83;;;19.33;;
45620;SDS011;31345;51.522;10.702;2023-11-18T06:41:26;31.40;;;18.47;;
45620;SDS011;31345;51.522;10.702;2023-11-18T06:44:01;33.50;;;18.70;;
45620;SDS011;31345;51.522;10.702;2023-11-18T06:46:35;35.63;;;17.93;;
45620;SDS011;31345;51.522;10.702;2023-11-18T06:49:06;32.92;;;17.08;;
45620;SDS011;31345;51.522;10.702;2023-11-18T06:51:39;28.67;;;16.50;;
45620;SDS011;31345;51.522;10.702;2023-11-18T06:54:07;25.50;;;15.23;;
45620;SDS011;31345;51.522;10.702;2023-11-18T06:56:36;31.00;;;17.90;;
45620;SDS011;31345;51.522;10.702;2023-11-18T06:59:06;31.63;;;17.40;;
45620;SDS011;31345;51.522;10.702;2023-11-18T07:01:33;40.10;;;22.50;;
45620;SDS011;31345;51.522;10.702;2023-11-18T07:04:01;37.40;;;21.70;;
45620;SDS011;31345;51.522;10.702;2023-11-18T07:06:29;45.13;;;24.40;;
45620;SDS011;31345;51.522;10.702;2023-11-18T07:09:02;37.97;;;21.57;;
45620;SDS011;31345;51.522;10.702;2023-11-18T07:11:39;36.00;;;19.30;;
45620;SDS011;31345;51.522;10.702;2023-11-18T07:14:09;34.20;;;19.13;;
45620;SDS011;31345;51.522;10.702;2023-11-18T07:16:42;34.43;;;19.00;;
45620;SDS011;31345;51.522;10.702;2023-11-18T07:19:10;37.13;;;19.83;;
45620;SDS011;31345;51.522;10.702;2023-11-18T07:21:45;38.90;;;20.73;;
45620;SDS011;31345;51.522;10.702;2023-11-18T07:24:13;34.47;;;18.87;;
45620;SDS011;31345;51.522;10.702;2023-11-18T07:26:46;32.27;;;19.73;;
45620;SDS011;31345;51.522;10.702;2023-11-18T07:29:16;33.73;;;19.30;;
45620;SDS011;31345;51.522;10.702;2023-11-18T07:31:43;29.27;;;18.60;;
45620;SDS011;31345;51.522;10.702;2023-11-18T07:34:11;30.97;;;18.80;;
45620;SDS011;31345;51.522;10.702;2023-11-18T07:36:39;32.07;;;18.53;;
45620;SDS011;31345;51.522;10.702;2023-11-18T07:39:12;34.20;;;17.83;;
45620;SDS011;31345;51.522;10.702;2023-11-18T07:41:46;31.60;;;18.73;;
45620;SDS011;31345;51.522;10.702;2023-11-18T07:44:20;31.30;;;17.73;;
45620;SDS011;31345;51.522;10.702;2023-11-18T07:46:51;31.77;;;17.83;;
45620;SDS011;31345;51.522;10.702;2023-11-18T07:49:23;32.17;;;17.93;;
45620;SDS011;31345;51.522;10.702;2023-11-18T07:51:52;29.63;;;17.83;;
45620;SDS011;31345;51.522;10.702;2023-11-18T07:54:25;31.30;;;19.10;;
45620;SDS011;31345;51.522;10.702;2023-11-18T07:56:53;33.90;;;17.70;;
45620;SDS011;31345;51.522;10.702;2023-11-18T07:59:22;31.40;;;18.37;;
45620;SDS011;31345;51.522;10.702;2023-11-18T08:01:50;31.87;;;18.57;;
45620;SDS011;31345;51.522;10.702;2023-11-18T08:04:19;32.53;;;18.27;;
45620;SDS011;31345;51.522;10.702;2023-11-18T08:06:47;32.83;;;17.73;;
45620;SDS011;31345;51.522;10.702;2023-11-18T08:09:18;31.40;;;17.40;;
45620;SDS011;31345;51.522;10.702;2023-11-18T08:11:54;30.40;;;17.33;;
45620;SDS011;31345;51.522;10.702;2023-11-18T08:14:23;30.87;;;18.90;;
45620;SDS011;31345;51.522;10.702;2023-11-18T08:16:51;32.70;;;18.97;;
45620;SDS011;31345;51.522;10.702;2023-11-18T08:19:19;38.17;;;19.03;;
45620;SDS011;31345;51.522;10.702;2023-11-18T08:21:48;33.10;;;19.23;;
45620;SDS011;31345;51.522;10.702;2023-11-18T08:24:16;30.63;;;18.33;;
45620;SDS011;31345;51.522;10.702;2023-11-18T08:26:45;32.23;;;18.70;;
45620;SDS011;31345;51.522;10.702;2023-11-18T08:29:13;35.47;;;19.40;;
45620;SDS011;31345;51.522;10.702;2023-11-18T08:31:42;42.07;;;21.17;;
45620;SDS011;31345;51.522;10.702;2023-11-18T08:34:10;35.07;;;19.80;;
45620;SDS011;31345;51.522;10.702;2023-11-18T08:36:37;32.63;;;19.03;;
45620;SDS011;31345;51.522;10.702;2023-11-18T08:39:05;32.50;;;19.77;;
45620;SDS011;31345;51.522;10.702;2023-11-18T08:41:41;32.60;;;18.80;;
45620;SDS011;31345;51.522;10.702;2023-11-18T08:44:14;29.37;;;18.20;;
45620;SDS011;31345;51.522;10.702;2023-11-18T08:46:43;31.77;;;19.40;;
45620;SDS011;31345;51.522;10.702;2023-11-18T08:49:11;31.77;;;20.17;;
45620;SDS011;31345;51.522;10.702;2023-11-18T08:51:43;36.77;;;20.93;;
45620;SDS011;31345;51.522;10.702;2023-11-18T08:54:12;33.07;;;19.13;;
45620;SDS011;31345;51.522;10.702;2023-11-18T08:56:56;36.23;;;22.63;;
45620;SDS011;31345;51.522;10.702;2023-11-18T08:59:23;39.85;;;21.85;;
45620;SDS011;31345;51.522;10.702;2023-11-18T09:01:58;38.53;;;21.40;;
45620;SDS011;31345;51.522;10.702;2023-11-18T09:04:26;39.20;;;21.20;;
45620;SDS011;31345;51.522;10.702;2023-11-18T09:06:58;40.23;;;22.47;;
45620;SDS011;31345;51.522;10.702;2023-11-18T09:09:26;32.97;;;20.43;;
45620;SDS011;31345;51.522;10.702;2023-11-18T09:11:54;36.90;;;21.57;;
45620;SDS011;31345;51.522;10.702;2023-11-18T09:14:22;39.40;;;21.80;;
45620;SDS011;31345;51.522;10.702;2023-11-18T09:16:51;41.95;;;26.40;;
45620;SDS011;31345;51.522;10.702;2023-11-18T09:19:22;40.45;;;25.00;;
45620;SDS011;31345;51.522;10.702;2023-11-18T09:21:50;38.63;;;22.50;;
45620;SDS011;31345;51.522;10.702;2023-11-18T09:24:17;43.38;;;32.03;;
45620;SDS011;31345;51.522;10.702;2023-11-18T09:26:46;44.70;;;30.37;;
45620;SDS011;31345;51.522;10.702;2023-11-18T09:29:16;43.87;;;26.77;;
45620;SDS011;31345;51.522;10.702;2023-11-18T09:31:45;40.70;;;22.70;;
45620;SDS011;31345;51.522;10.702;2023-11-18T09:34:15;39.75;;;24.25;;
45620;SDS011;31345;51.522;10.702;2023-11-18T09:36:44;34.38;;;21.83;;
45620;SDS011;31345;51.522;10.702;2023-11-18T09:39:14;37.57;;;22.63;;
45620;SDS011;31345;51.522;10.702;2023-11-18T09:41:55;34.42;;;21.88;;
45620;SDS011;31345;51.522;10.702;2023-11-18T09:44:23;38.72;;;22.60;;
45620;SDS011;31345;51.522;10.702;2023-11-18T09:46:52;32.72;;;20.63;;
45620;SDS011;31345;51.522;10.702;2023-11-18T09:49:32;39.35;;;21.20;;
45620;SDS011;31345;51.522;10.702;2023-11-18T09:52:06;33.92;;;21.20;;
45620;SDS011;31345;51.522;10.702;2023-11-18T09:54:36;38.25;;;22.17;;
45620;SDS011;31345;51.522;10.702;2023-11-18T09:57:19;34.40;;;21.20;;
45620;SDS011;31345;51.522;10.702;2023-11-18T10:00:06;40.77;;;23.77;;
45620;SDS011;31345;51.522;10.702;2023-11-18T10:02:47;33.92;;;22.88;;
45620;SDS011;31345;51.522;10.702;2023-11-18T10:05:16;38.70;;;23.13;;
45620;SDS011;31345;51.522;10.702;2023-11-18T10:07:48;36.50;;;22.13;;
45620;SDS011;31345;51.522;10.702;2023-11-18T10:10:17;33.35;;;22.73;;
45620;SDS011;31345;51.522;10.702;2023-11-18T10:12:47;42.65;;;21.98;;
45620;SDS011;31345;51.522;10.702;2023-11-18T10:15:18;33.85;;;19.98;;
45620;SDS011;31345;51.522;10.702;2023-11-18T10:17:54;34.78;;;20.83;;
45620;SDS011;31345;51.522;10.702;2023-11-18T10:20:43;32.67;;;19.85;;
45620;SDS011;31345;51.522;10.702;2023-11-18T10:23:14;27.83;;;18.80;;
45620;SDS011;31345;51.522;10.702;2023-11-18T10:25:47;33.33;;;20.20;;
45620;SDS011;31345;51.522;10.702;2023-11-18T10:28:21;32.30;;;18.45;;
45620;SDS011;31345;51.522;10.702;2023-11-18T10:30:50;34.05;;;19.05;;
45620;SDS011;31345;51.522;10.702;2023-11-18T10:33:23;29.65;;;18.98;;
45620;SDS011;31345;51.522;10.702;2023-11-18T10:35:56;78.60;;;50.75;;
45620;SDS011;31345;51.522;10.702;2023-11-18T10:38:31;39.28;;;25.88;;
45620;SDS011;31345;51.522;10.702;2023-11-18T10:41:02;35.40;;;21.10;;
45620;SDS011;31345;51.522;10.702;2023-11-18T10:43:36;35.50;;;22.08;;
45620;SDS011;31345;51.522;10.702;2023-11-18T10:46:10;37.00;;;24.27;;
45620;SDS011;31345;51.522;10.702;2023-11-18T10:48:40;36.50;;;20.10;;
45620;SDS011;31345;51.522;10.702;2023-11-18T10:51:14;33.35;;;19.55;;
45620;SDS011;31345;51.522;10.702;2023-11-18T10:53:48;33.47;;;18.88;;
45620;SDS011;31345;51.522;10.702;2023-11-18T10:56:24;27.25;;;17.05;;
45620;SDS011;31345;51.522;10.702;2023-11-18T10:58:55;28.27;;;15.07;;
45620;SDS011;31345;51.522;10.702;2023-11-18T11:01:29;25.38;;;15.95;;
45620;SDS011;31345;51.522;10.702;2023-11-18T11:03:59;22.45;;;15.07;;
45620;SDS011;31345;51.522;10.702;2023-11-18T11:06:35;22.27;;;13.63;;
45620;SDS011;31345;51.522;10.702;2023-11-18T11:09:15;20.85;;;12.90;;
45620;SDS011;31345;51.522;10.702;2023-11-18T11:11:48;18.08;;;10.52;;
45620;SDS011;31345;51.522;10.702;2023-11-18T11:14:20;15.60;;;10.32;;
45620;SDS011;31345;51.522;10.702;2023-11-18T11:17:03;12.52;;;8.43;;
45620;SDS011;31345;51.522;10.702;2023-11-18T11:19:39;16.50;;;10.20;;
45620;SDS011;31345;51.522;10.702;2023-11-18T11:22:22;15.38;;;9.80;;
45620;SDS011;31345;51.522;10.702;2023-11-18T11:25:02;15.43;;;8.75;;
45620;SDS011;31345;51.522;10.702;2023-11-18T11:27:40;15.85;;;9.68;;
45620;SDS011;31345;51.522;10.702;2023-11-18T11:30:21;14.53;;;9.90;;
45620;SDS011;31345;51.522;10.702;2023-11-18T11:32:57;15.27;;;9.23;;
45620;SDS011;31345;51.522;10.702;2023-11-18T11:35:40;16.63;;;10.35;;
45620;SDS011;31345;51.522;10.702;2023-11-18T11:38:14;13.40;;;9.40;;
45620;SDS011;31345;51.522;10.702;2023-11-18T11:40:51;14.60;;;9.32;;
45620;SDS011;31345;51.522;10.702;2023-11-18T11:43:21;14.48;;;9.63;;
45620;SDS011;31345;51.522;10.702;2023-11-18T11:45:50;16.88;;;9.85;;
45620;SDS011;31345;51.522;10.702;2023-11-18T11:48:25;13.70;;;9.25;;
45620;SDS011;31345;51.522;10.702;2023-11-18T11:51:00;13.18;;;9.00;;
45620;SDS011;31345;51.522;10.702;2023-11-18T11:53:42;15.40;;;9.68;;
45620;SDS011;31345;51.522;10.702;2023-11-18T11:56:15;14.20;;;9.45;;
45620;SDS011;31345;51.522;10.702;2023-11-18T11:58:50;16.23;;;10.82;;
45620;SDS011;31345;51.522;10.702;2023-11-18T12:01:24;18.50;;;11.90;;
45620;SDS011;31345;51.522;10.702;2023-11-18T12:03:59;13.60;;;9.50;;
45620;SDS011;31345;51.522;10.702;2023-11-18T12:06:32;14.32;;;9.65;;
45620;SDS011;31345;51.522;10.702;2023-11-18T12:09:08;14.90;;;8.95;;
45620;SDS011;31345;51.522;10.702;2023-11-18T12:11:38;14.18;;;8.90;;
45620;SDS011;31345;51.522;10.702;2023-11-18T12:14:08;14.77;;;9.52;;
45620;SDS011;31345;51.522;10.702;2023-11-18T12:17:04;13.98;;;9.75;;
45620;SDS011;31345;51.522;10.702;2023-11-18T12:19:37;12.38;;;8.55;;
45620;SDS011;31345;51.522;10.702;2023-11-18T12:22:12;11.85;;;9.32;;
45620;SDS011;31345;51.522;10.702;2023-11-18T12:24:46;11.35;;;6.63;;
45620;SDS011;31345;51.522;10.702;2023-11-18T12:27:45;13.10;;;9.13;;
45620;SDS011;31345;51.522;10.702;2023-11-18T12:33:18;18.25;;;8.85;;
45620;SDS011;31345;51.522;10.702;2023-11-18T12:39:00;12.25;;;7.68;;
45620;SDS011;31345;51.522;10.702;2023-11-18T12:41:54;14.25;;;8.05;;
45620;SDS011;31345;51.522;10.702;2023-11-18T12:44:35;16.97;;;9.23;;
45620;SDS011;31345;51.522;10.702;2023-11-18T12:47:05;12.52;;;8.20;;
45620;SDS011;31345;51.522;10.702;2023-11-18T12:49:40;11.73;;;7.57;;
45620;SDS011;31345;51.522;10.702;2023-11-18T12:52:09;12.63;;;8.55;;
45620;SDS011;31345;51.522;10.702;2023-11-18T12:54:40;12.52;;;7.88;;
45620;SDS011;31345;51.522;10.702;2023-11-18T12:57:09;12.80;;;9.23;;
45620;SDS011;31345;51.522;10.702;2023-11-18T12:59:42;14.15;;;9.25;;
45620;SDS011;31345;51.522;10.702;2023-11-18T13:02:09;16.55;;;10.05;;
45620;SDS011;31345;51.522;10.702;2023-11-18T13:04:39;17.17;;;13.65;;
45620;SDS011;31345;51.522;10.702;2023-11-18T13:07:12;13.95;;;10.65;;
45620;SDS011;31345;51.522;10.702;2023-11-18T13:09:45;13.35;;;9.52;;
45620;SDS011;31345;51.522;10.702;2023-11-18T13:12:14;15.88;;;10.45;;
45620;SDS011;31345;51.522;10.702;2023-11-18T13:14:44;14.60;;;10.18;;
45620;SDS011;31345;51.522;10.702;2023-11-18T13:17:14;12.90;;;9.25;;
45620;SDS011;31345;51.522;10.702;2023-11-18T13:19:43;14.63;;;11.25;;
45620;SDS011;31345;51.522;10.702;2023-11-18T13:22:18;14.32;;;11.38;;
45620;SDS011;31345;51.522;10.702;2023-11-18T13:24:46;17.17;;;11.13;;
45620;SDS011;31345;51.522;10.702;2023-11-18T13:27:16;11.55;;;9.00;;
45620;SDS011;31345;51.522;10.702;2023-11-18T13:29:47;12.25;;;8.63;;
45620;SDS011;31345;51.522;10.702;2023-11-18T13:32:16;17.50;;;12.77;;
45620;SDS011;31345;51.522;10.702;2023-11-18T13:34:49;18.67;;;16.63;;
45620;SDS011;31345;51.522;10.702;2023-11-18T13:37:17;12.27;;;9.77;;
45620;SDS011;31345;51.522;10.702;2023-11-18T13:39:52;10.60;;;7.43;;
45620;SDS011;31345;51.522;10.702;2023-11-18T13:42:26;11.85;;;6.53;;
45620;SDS011;31345;51.522;10.702;2023-11-18T13:45:02;10.27;;;6.88;;
45620;SDS011;31345;51.522;10.702;2023-11-18T13:47:40;11.17;;;6.83;;
45620;SDS011;31345;51.522;10.702;2023-11-18T13:50:15;7.65;;;5.28;;
45620;SDS011;31345;51.522;10.702;2023-11-18T13:52:50;7.72;;;5.35;;
45620;SDS011;31345;51.522;10.702;2023-11-18T13:55:18;8.15;;;6.22;;
45620;SDS011;31345;51.522;10.702;2023-11-18T13:57:52;7.90;;;5.72;;
45620;SDS011;31345;51.522;10.702;2023-11-18T14:00:28;16.30;;;11.95;;
45620;SDS011;31345;51.522;10.702;2023-11-18T14:03:00;10.27;;;8.60;;
45620;SDS011;31345;51.522;10.702;2023-11-18T14:05:32;9.85;;;7.05;;
45620;SDS011;31345;51.522;10.702;2023-11-18T14:08:01;9.60;;;7.55;;
45620;SDS011;31345;51.522;10.702;2023-11-18T14:10:39;9.23;;;6.07;;
45620;SDS011;31345;51.522;10.702;2023-11-18T14:13:14;7.97;;;6.00;;
45620;SDS011;31345;51.522;10.702;2023-11-18T14:15:49;8.82;;;5.40;;
45620;SDS011;31345;51.522;10.702;2023-11-18T14:18:26;8.63;;;5.25;;
45620;SDS011;31345;51.522;10.702;2023-11-18T14:20:59;7.47;;;5.55;;
45620;SDS011;31345;51.522;10.702;2023-11-18T14:23:27;6.80;;;5.28;;
45620;SDS011;31345;51.522;10.702;2023-11-18T14:25:54;6.57;;;4.60;;
45620;SDS011;31345;51.522;10.702;2023-11-18T14:28:22;7.93;;;5.30;;
45620;SDS011;31345;51.522;10.702;2023-11-18T14:30:53;7.67;;;5.20;;
45620;SDS011;31345;51.522;10.702;2023-11-18T14:33:21;8.23;;;5.18;;
45620;SDS011;31345;51.522;10.702;2023-11-18T14:35:49;6.43;;;4.50;;
45620;SDS011;31345;51.522;10.702;2023-11-18T14:38:16;8.95;;;5.00;;
45620;SDS011;31345;51.522;10.702;2023-11-18T14:40:49;12.45;;;9.27;;
45620;SDS011;31345;51.522;10.702;2023-11-18T14:43:19;12.18;;;8.27;;